Time;durP1;ratioP1;P1;durP2;ratioP2;P2;SDS_P1;SDS_P2;PMS_P1;PMS_P2;Temp;Humidity;BMP_temperature;BMP_pressure;BME280_temperature;BME280_humidity;BME280_pressure;Samples;Min_cycle;Max_cycle;Signal;HPM_P1;HPM_P2
2022/09/04 00:01:38;;;;;;;;;10.50;10.25;;;;;22.32;43.82;100891.78;4964767;28;45358;-61
2022/09/04 00:04:21;;;;;;;;;10.75;10.00;;;;;22.26;44.17;100884.13;4961584;28;45620;-63
2022/09/04 00:07:20;;;;;;;;;8.75;8.25;;;;;22.21;44.40;100892.44;4970509;28;45401;-62
2022/09/04 00:10:08;;;;;;;;;13.50;8.00;;;;;22.16;44.37;100891.88;4965372;28;45309;-62
2022/09/04 00:12:43;;;;;;;;;9.75;9.75;;;;;22.13;43.73;100893.88;4969744;28;45379;-63
2022/09/04 00:15:42;;;;;;;;;9.50;8.50;;;;;22.09;44.49;100895.88;4967072;28;45175;-63
2022/09/04 00:18:14;;;;;;;;;7.00;7.00;;;;;22.04;43.92;100900.63;4956839;28;45594;-63
2022/09/04 00:20:46;;;;;;;;;8.50;7.75;;;;;22.01;44.23;100904.38;4969124;28;45515;-63
2022/09/04 00:23:29;;;;;;;;;10.00;9.00;;;;;21.97;44.44;100908.16;4967277;28;46042;-63
2022/09/04 00:26:13;;;;;;;;;7.75;7.75;;;;;21.91;43.98;100909.38;4969747;28;45313;-62
2022/09/04 00:28:57;;;;;;;;;9.50;9.50;;;;;21.85;44.59;100914.25;4969784;28;45386;-63
2022/09/04 00:32:03;;;;;;;;;9.25;9.25;;;;;21.84;44.45;100923.22;4966259;28;45413;-63
2022/09/04 00:34:51;;;;;;;;;8.25;8.25;;;;;21.79;44.60;100911.94;4971821;28;46101;-63
2022/09/04 00:37:21;;;;;;;;;8.00;7.00;;;;;21.75;44.55;100929.97;4971953;28;45444;-63
2022/09/04 00:39:57;;;;;;;;;9.50;9.50;;;;;21.71;44.29;100926.59;4969728;28;45575;-63
2022/09/04 00:42:44;;;;;;;;;9.75;7.00;;;;;21.68;44.79;100933.94;4967874;28;45298;-63
2022/09/04 00:45:50;;;;;;;;;6.50;6.50;;;;;21.64;44.25;100935.94;4971471;28;46159;-62
2022/09/04 00:48:30;;;;;;;;;8.00;8.00;;;;;21.57;44.21;100937.22;4969401;28;45387;-62
2022/09/04 00:51:10;;;;;;;;;8.25;8.00;;;;;21.54;44.87;100942.72;4973923;28;45400;-62
2022/09/04 00:54:00;;;;;;;;;7.50;7.50;;;;;21.52;44.50;100928.56;4969090;28;45391;-63
2022/09/04 00:56:25;;;;;;;;;9.25;7.75;;;;;21.49;44.73;100939.47;4970858;28;45464;-63
2022/09/04 00:59:28;;;;;;;;;9.25;8.25;;;;;21.43;44.45;100938.88;4969714;28;45346;-62
2022/09/04 01:02:04;;;;;;;;;9.50;9.00;;;;;21.42;44.84;100945.16;4967651;28;45385;-63
2022/09/04 01:04:37;;;;;;;;;11.75;10.25;;;;;21.40;44.85;100940.84;4962728;28;45341;-63
2022/09/04 01:07:27;;;;;;;;;8.75;8.75;;;;;21.38;44.36;100950.75;4962925;28;47868;-62
2022/09/04 01:10:22;;;;;;;;;7.00;7.00;;;;;21.35;44.83;100956.28;4962940;28;45443;-62
2022/09/04 01:13:02;;;;;;;;;10.00;8.00;;;;;21.33;44.44;100960.84;4963476;28;45328;-62
2022/09/04 01:15:45;;;;;;;;;7.75;6.75;;;;;21.28;44.82;100961.09;4945917;28;45410;-62
2022/09/04 01:18:17;;;;;;;;;10.25;10.25;;;;;21.26;44.29;100952.31;4962529;28;45251;-62
2022/09/04 01:20:46;;;;;;;;;9.25;9.00;;;;;21.24;44.49;100954.19;4963347;28;45355;-62
2022/09/04 01:23:38;;;;;;;;;9.75;9.75;;;;;21.23;44.44;100949.78;4963124;28;45245;-62
2022/09/04 01:26:21;;;;;;;;;8.75;8.75;;;;;21.19;44.60;100957.13;4963022;28;45754;-62
2022/09/04 01:29:02;;;;;;;;;10.00;7.25;;;;;21.18;44.40;100957.22;4962850;28;46468;-62
2022/09/04 01:32:01;;;;;;;;;8.25;7.00;;;;;21.16;44.83;100959.97;4962691;28;45284;-62
2022/09/04 01:34:33;;;;;;;;;11.25;7.00;;;;;21.14;44.76;100967.19;4961722;28;45382;-62
2022/09/04 01:37:27;;;;;;;;;9.00;8.00;;;;;21.09;44.58;100961.25;4961821;28;45489;-62
2022/09/04 01:40:14;;;;;;;;;7.50;6.50;;;;;21.06;44.56;100967.63;4934841;28;46135;-62
2022/09/04 01:42:48;;;;;;;;;6.25;6.25;;;;;21.03;44.67;100975.81;4962857;28;45324;-62
2022/09/04 01:45:24;;;;;;;;;8.00;7.00;;;;;21.00;44.32;100965.28;4962794;28;45327;-62
2022/09/04 01:47:55;;;;;;;;;11.00;8.75;;;;;20.99;44.27;100974.25;4962553;28;45458;-62
2022/09/04 01:50:25;;;;;;;;;7.25;7.00;;;;;20.95;44.11;100964.69;4968182;28;45481;-62
2022/09/04 01:52:57;;;;;;;;;8.25;8.25;;;;;20.95;44.95;100970.03;4933384;28;45404;-62
2022/09/04 01:55:53;;;;;;;;;8.25;7.75;;;;;20.92;44.43;100973.72;4962691;28;45201;-62
2022/09/04 01:58:40;;;;;;;;;9.00;9.00;;;;;20.90;44.51;100972.94;4944966;28;45221;-62
2022/09/04 02:01:09;;;;;;;;;6.75;6.75;;;;;20.88;44.92;100968.63;4962394;28;46618;-62
2022/09/04 02:03:47;;;;;;;;;8.50;7.00;;;;;20.81;44.68;100978.78;4962529;28;45227;-62
2022/09/04 02:06:30;;;;;;;;;6.75;6.75;;;;;20.78;45.21;100974.47;4962653;28;45184;-61
2022/09/04 02:09:28;;;;;;;;;7.00;7.00;;;;;20.76;45.22;100975.50;4962772;28;45233;-62
2022/09/04 02:12:13;;;;;;;;;10.00;9.00;;;;;20.72;45.06;100979.28;4948762;28;45633;-62
2022/09/04 02:15:13;;;;;;;;;8.00;8.00;;;;;20.66;44.85;100991.09;4962329;28;45351;-62
2022/09/04 02:17:46;;;;;;;;;8.00;8.00;;;;;20.58;44.94;100990.66;4932368;28;45391;-61
2022/09/04 02:20:25;;;;;;;;;8.25;6.75;;;;;20.55;45.01;100991.69;4962298;28;45256;-62
2022/09/04 02:23:02;;;;;;;;;9.00;8.50;;;;;20.53;45.18;100984.69;4962132;28;45393;-62
2022/09/04 02:25:42;;;;;;;;;10.50;7.50;;;;;20.51;45.67;100984.75;4962268;28;45407;-62
2022/09/04 02:28:08;;;;;;;;;8.00;7.50;;;;;20.50;45.49;100982.16;4962206;28;45466;-62
2022/09/04 02:31:15;;;;;;;;;9.75;9.25;;;;;20.46;44.98;100993.03;4961015;28;45264;-62
2022/09/04 02:34:04;;;;;;;;;7.50;6.00;;;;;20.44;45.06;100997.56;4941855;28;45258;-62
2022/09/04 02:36:35;;;;;;;;;10.00;9.50;;;;;20.43;45.47;100994.97;4962006;28;45290;-62
2022/09/04 02:39:39;;;;;;;;;8.00;8.00;;;;;20.38;45.60;100994.34;4961971;28;45323;-63
2022/09/04 02:42:26;;;;;;;;;9.75;7.25;;;;;20.34;45.66;101003.44;4961905;28;45326;-63
2022/09/04 02:45:08;;;;;;;;;7.00;6.75;;;;;20.32;45.27;101003.53;4961541;28;46365;-62
2022/09/04 02:47:46;;;;;;;;;8.00;8.00;;;;;20.30;45.55;101002.72;4961640;28;45368;-62
2022/09/04 02:50:49;;;;;;;;;9.25;6.25;;;;;20.26;45.36;101023.41;4965733;28;45180;-62
2022/09/04 02:53:42;;;;;;;;;7.50;7.25;;;;;20.21;45.46;101013.88;4961728;28;45524;-62
2022/09/04 02:56:52;;;;;;;;;9.00;8.50;;;;;20.21;45.59;101019.22;4961582;28;45359;-62
2022/09/04 02:59:55;;;;;;;;;6.00;5.50;;;;;20.18;45.39;101014.91;4946237;28;45367;-63
2022/09/04 03:02:29;;;;;;;;;7.50;7.25;;;;;20.14;45.61;101016.00;4961609;28;45266;-62
2022/09/04 03:05:03;;;;;;;;;8.50;7.50;;;;;20.12;46.06;101015.19;4945194;28;45277;-62
2022/09/04 03:07:36;;;;;;;;;9.75;9.25;;;;;20.11;46.10;101016.13;4961558;28;46012;-62
2022/09/04 03:10:14;;;;;;;;;8.00;7.25;;;;;20.09;45.92;101018.88;4961410;28;45267;-62
2022/09/04 03:12:51;;;;;;;;;7.00;7.00;;;;;20.09;45.48;101010.03;4961572;28;45271;-63
2022/09/04 03:15:23;;;;;;;;;9.00;9.00;;;;;20.07;46.17;101006.56;4961393;28;45517;-62
2022/09/04 03:17:56;;;;;;;;;9.00;9.00;;;;;20.07;46.09;101012.75;4961266;28;45438;-62
2022/09/04 03:20:26;;;;;;;;;8.00;7.00;;;;;20.06;46.25;101008.38;4961338;28;45449;-62
2022/09/04 03:22:58;;;;;;;;;6.50;6.50;;;;;20.07;45.96;101006.56;4961522;28;45378;-62
2022/09/04 03:25:35;;;;;;;;;8.00;7.25;;;;;20.07;46.06;101012.75;4961308;28;45481;-62
2022/09/04 03:28:01;;;;;;;;;10.00;8.00;;;;;20.09;46.16;101010.03;4961066;28;45290;-62
2022/09/04 03:30:27;;;;;;;;;7.50;7.50;;;;;20.07;45.63;101006.56;4961419;28;45338;-61
2022/09/04 03:33:11;;;;;;;;;7.75;7.25;;;;;20.10;46.06;101017.06;4961174;28;45446;-62
2022/09/04 03:35:55;;;;;;;;;7.00;7.00;;;;;20.10;45.66;101017.94;4961219;28;46133;-62
2022/09/04 03:38:41;;;;;;;;;6.00;6.00;;;;;20.10;45.74;101025.06;4961085;28;47114;-62
2022/09/04 03:41:46;;;;;;;;;8.50;8.00;;;;;20.13;45.88;101016.94;4961096;28;45287;-62
2022/09/04 03:44:41;;;;;;;;;9.50;6.50;;;;;20.13;45.92;101020.44;4943798;28;45317;-62
2022/09/04 03:47:15;;;;;;;;;8.75;7.00;;;;;20.15;46.22;101020.41;4959939;28;45419;-62
2022/09/04 03:49:52;;;;;;;;;8.25;8.00;;;;;20.12;45.85;101017.88;4943967;28;46523;-61
2022/09/04 03:52:32;;;;;;;;;10.00;10.00;;;;;20.16;45.68;101016.78;4962833;28;45359;-61
2022/09/04 03:55:22;;;;;;;;;7.75;6.50;;;;;20.17;45.80;101015.84;4961155;28;45267;-62
2022/09/04 03:58:18;;;;;;;;;10.50;10.00;;;;;20.18;46.02;101030.91;4943295;28;45277;-62
2022/09/04 04:01:12;;;;;;;;;7.50;7.50;;;;;20.20;45.83;101025.47;4959816;28;46561;-62
2022/09/04 04:04:19;;;;;;;;;8.50;6.50;;;;;20.21;46.39;101024.56;4960699;28;45244;-62
2022/09/04 04:06:53;;;;;;;;;6.50;6.25;;;;;20.22;45.95;101027.13;4960892;28;45312;-62
2022/09/04 04:09:57;;;;;;;;;9.50;6.50;;;;;20.25;46.31;101031.44;4943445;28;45515;-62
2022/09/04 04:12:55;;;;;;;;;6.25;6.25;;;;;20.27;46.33;101033.09;4942670;28;48334;-62
2022/09/04 04:15:31;;;;;;;;;7.25;7.25;;;;;20.29;45.96;101036.56;4960516;28;45344;-62
2022/09/04 04:18:12;;;;;;;;;7.25;7.25;;;;;20.32;45.94;101038.22;4960527;28;45382;-62
2022/09/04 04:21:00;;;;;;;;;8.00;8.00;;;;;20.34;45.93;101041.69;4960843;28;45395;-62
2022/09/04 04:24:01;;;;;;;;;6.25;6.25;;;;;20.35;46.33;101038.06;4953279;28;47365;-62
2022/09/04 04:26:40;;;;;;;;;11.25;9.50;;;;;20.35;46.32;101035.41;4960581;28;45264;-62
2022/09/04 04:29:37;;;;;;;;;9.75;9.00;;;;;20.36;45.87;101033.59;4960568;28;45831;-62
2022/09/04 04:32:23;;;;;;;;;9.75;9.00;;;;;20.37;45.98;101043.31;4960312;28;45335;-62
2022/09/04 04:35:03;;;;;;;;;10.50;8.75;;;;;20.37;46.30;101051.34;4942823;28;48202;-62
2022/09/04 04:37:31;;;;;;;;;9.50;9.00;;;;;20.38;45.91;101045.06;4960308;28;45453;-62
2022/09/04 04:40:18;;;;;;;;;8.00;7.00;;;;;20.38;46.18;101047.72;4960503;28;45477;-62
2022/09/04 04:42:58;;;;;;;;;8.50;7.75;;;;;20.37;45.80;101044.19;4942833;28;46278;-62
2022/09/04 04:45:50;;;;;;;;;8.00;7.25;;;;;20.38;46.23;101050.41;4942414;28;47087;-62
2022/09/04 04:48:27;;;;;;;;;7.50;7.50;;;;;20.36;45.80;101053.13;4960362;28;45343;-62
2022/09/04 04:51:07;;;;;;;;;9.00;7.00;;;;;20.36;46.11;101053.13;4965577;28;45426;-62
2022/09/04 04:53:55;;;;;;;;;10.00;8.75;;;;;20.36;46.05;101061.13;4960219;28;45500;-62
2022/09/04 04:56:52;;;;;;;;;8.00;7.00;;;;;20.33;46.21;101061.28;4960015;28;46196;-62
2022/09/04 04:59:38;;;;;;;;;9.00;9.00;;;;;20.30;45.54;101059.66;4955600;28;45189;-62
2022/09/04 05:02:15;;;;;;;;;8.75;7.75;;;;;20.27;45.58;101065.13;4960012;28;45236;-62
2022/09/04 05:04:50;;;;;;;;;8.25;8.25;;;;;20.25;45.72;101068.81;4943712;28;45304;-62
2022/09/04 05:07:34;;;;;;;;;8.50;8.50;;;;;20.24;45.84;101067.94;4960026;28;45410;-62
2022/09/04 05:10:06;;;;;;;;;7.50;6.75;;;;;20.25;45.69;101079.47;4944285;28;45452;-62
2022/09/04 05:13:18;;;;;;;;;7.00;7.00;;;;;20.21;46.04;101077.91;4962372;28;45141;-62
2022/09/04 05:15:51;;;;;;;;;10.75;9.00;;;;;20.21;45.87;101092.09;4963204;28;45429;-62
2022/09/04 05:18:43;;;;;;;;;9.00;8.50;;;;;20.20;46.15;101087.72;4963141;28;45311;-62
2022/09/04 05:21:23;;;;;;;;;7.75;7.75;;;;;20.19;45.73;101082.44;4963266;28;45268;-62
2022/09/04 05:24:12;;;;;;;;;9.25;9.25;;;;;20.16;46.06;101091.47;4963348;28;45280;-62
2022/09/04 05:26:51;;;;;;;;;8.75;8.75;;;;;20.12;45.76;101095.22;4954965;28;45217;-62
2022/09/04 05:29:27;;;;;;;;;9.00;9.00;;;;;20.11;46.16;101099.72;4962902;28;46344;-62
2022/09/04 05:32:00;;;;;;;;;10.00;9.00;;;;;20.08;45.73;101102.50;4962968;28;45313;-62
2022/09/04 05:34:32;;;;;;;;;10.75;10.75;;;;;20.08;46.07;101107.00;4943993;28;45320;-62
2022/09/04 05:37:41;;;;;;;;;8.50;8.50;;;;;20.06;46.16;101112.41;4959835;28;45902;-62
2022/09/04 05:40:34;;;;;;;;;13.00;7.50;;;;;20.03;45.88;101117.88;4894241;29;45685;-62
2022/09/04 05:43:14;;;;;;;;;8.00;7.75;;;;;20.01;46.20;101117.06;4962545;28;45169;-62
2022/09/04 05:46:18;;;;;;;;;9.50;8.00;;;;;20.01;45.85;101126.91;4962401;28;45584;-62
2022/09/04 05:48:58;;;;;;;;;10.25;9.00;;;;;19.98;45.88;101133.25;4962705;28;45340;-62
2022/09/04 05:51:24;;;;;;;;;10.75;8.75;;;;;19.98;45.85;101127.91;4967379;28;47045;-64
2022/09/04 05:54:01;;;;;;;;;8.50;8.50;;;;;19.96;46.40;101128.00;4962660;28;45224;-62
2022/09/04 05:56:49;;;;;;;;;8.00;8.00;;;;;19.96;46.39;101132.44;4962836;28;45281;-62
2022/09/04 05:59:45;;;;;;;;;7.50;6.75;;;;;19.95;46.37;101130.72;4934641;28;45384;-62
2022/09/04 06:02:32;;;;;;;;;12.50;11.00;;;;;19.96;46.53;101136.00;4962124;28;46196;-62
2022/09/04 06:05:06;;;;;;;;;7.75;7.75;;;;;19.96;46.35;101137.78;4962112;28;45286;-64
2022/09/04 06:07:50;;;;;;;;;10.00;10.00;;;;;19.96;46.50;101143.09;4961858;28;45259;-62
2022/09/04 06:10:39;;;;;;;;;11.50;9.00;;;;;19.97;46.35;101142.19;4962333;28;45262;-62
2022/09/04 06:13:51;;;;;;;;;10.25;8.75;;;;;19.99;46.66;101148.31;4962128;28;46630;-62
2022/09/04 06:16:39;;;;;;;;;8.50;8.50;;;;;19.98;46.48;101146.56;4962101;28;45188;-61
2022/09/04 06:19:28;;;;;;;;;12.50;7.75;;;;;20.00;46.40;101149.16;4962287;28;45248;-65
2022/09/04 06:22:35;;;;;;;;;10.75;10.00;;;;;20.01;46.68;101146.41;4962243;28;45416;-65
2022/09/04 06:25:27;;;;;;;;;10.00;9.75;;;;;20.03;46.83;101151.69;4961464;28;46264;-66
2022/09/04 06:28:25;;;;;;;;;9.25;6.75;;;;;20.04;46.43;101156.97;4962061;28;45707;-69
2022/09/04 06:31:32;;;;;;;;;8.50;8.00;;;;;20.06;46.36;101155.09;4962154;28;45527;-64
2022/09/04 06:34:13;;;;;;;;;8.50;8.00;;;;;20.07;46.37;101156.81;4961987;28;45506;-65
2022/09/04 06:37:07;;;;;;;;;10.50;10.50;;;;;20.08;46.48;101163.88;4950693;28;45482;-68
2022/09/04 06:39:47;;;;;;;;;11.00;9.50;;;;;20.09;46.26;101165.59;4935087;28;45466;-64
2022/09/04 06:42:50;;;;;;;;;10.00;8.50;;;;;20.09;46.45;101170.94;4944483;28;45367;-66
2022/09/04 06:45:42;;;;;;;;;8.50;7.50;;;;;20.11;46.39;101171.75;4961630;28;45239;-67
2022/09/04 06:48:34;;;;;;;;;11.25;10.00;;;;;20.11;46.83;101177.06;4944239;28;47730;-64
2022/09/04 06:51:14;;;;;;;;;12.00;10.75;;;;;20.13;46.42;101177.00;4967653;28;45387;-64
2022/09/04 06:53:55;;;;;;;;;10.50;8.00;;;;;20.15;46.59;101185.81;4957511;28;45734;-63
2022/09/04 06:56:23;;;;;;;;;8.75;8.75;;;;;20.14;46.50;101192.06;4960254;28;46090;-63
2022/09/04 06:59:10;;;;;;;;;9.00;8.50;;;;;20.15;46.84;101185.81;4961007;28;45478;-71
2022/09/04 07:01:59;;;;;;;;;11.75;8.75;;;;;20.17;46.96;101181.25;4961187;28;45441;-65
2022/09/04 07:05:09;;;;;;;;;9.25;8.75;;;;;20.17;46.90;101178.56;4956164;28;45437;-64
2022/09/04 07:07:52;;;;;;;;;8.50;7.25;;;;;20.20;46.58;101182.91;4920674;28;45366;-68
2022/09/04 07:10:27;;;;;;;;;9.75;8.75;;;;;20.19;46.56;101182.03;4957245;28;46179;-67
2022/09/04 07:13:28;;;;;;;;;10.25;9.50;;;;;20.23;47.07;101182.78;4960231;28;45308;-64
2022/09/04 07:16:18;;;;;;;;;8.00;7.25;;;;;20.26;46.71;101177.28;4956958;28;45343;-67
2022/09/04 07:19:02;;;;;;;;;9.00;8.25;;;;;20.28;47.14;101186.94;4954660;28;46569;-62
2022/09/04 07:21:42;;;;;;;;;8.75;7.50;;;;;20.35;46.40;101198.19;4940322;28;45433;-66
2022/09/04 07:24:32;;;;;;;;;7.25;7.25;;;;;20.41;46.55;101197.88;4947898;28;45300;-64
2022/09/04 07:27:06;;;;;;;;;9.00;7.50;;;;;20.46;47.06;101195.00;4959789;28;45331;-66
2022/09/04 07:29:46;;;;;;;;;10.75;9.50;;;;;20.50;46.81;101196.56;4960494;28;45540;-65
2022/09/04 07:32:35;;;;;;;;;8.25;8.25;;;;;20.54;47.17;101195.50;4947759;28;45185;-66
2022/09/04 07:35:06;;;;;;;;;10.00;8.75;;;;;20.61;46.52;101204.91;4946901;28;45351;-66
2022/09/04 07:38:07;;;;;;;;;9.50;8.00;;;;;20.65;46.94;101205.63;4957394;28;45272;-65
2022/09/04 07:40:38;;;;;;;;;12.00;9.00;;;;;20.74;47.06;101201.66;4925213;28;45820;-67
2022/09/04 07:43:17;;;;;;;;;9.50;9.50;;;;;20.82;46.93;101214.63;4942963;28;45316;-65
2022/09/04 07:45:53;;;;;;;;;8.25;8.25;;;;;20.87;46.18;101212.63;4955385;28;45264;-65
2022/09/04 07:48:34;;;;;;;;;7.75;7.00;;;;;20.92;46.62;101214.13;4953111;28;45407;-66
2022/09/04 07:51:12;;;;;;;;;9.00;8.50;;;;;20.99;46.16;101219.16;4959253;28;45574;-67
2022/09/04 07:53:55;;;;;;;;;10.50;9.00;;;;;21.02;46.11;101225.22;4960416;28;46273;-67
2022/09/04 07:56:52;;;;;;;;;12.00;8.75;;;;;21.08;46.04;101227.56;4960386;28;45359;-67
2022/09/04 07:59:36;;;;;;;;;8.00;8.00;;;;;21.13;46.60;101232.69;4954430;28;45463;-67
2022/09/04 08:02:16;;;;;;;;;9.00;7.25;;;;;21.19;46.02;101232.34;4961115;28;45568;-67
2022/09/04 08:04:53;;;;;;;;;8.50;8.50;;;;;21.24;46.04;101240.13;4958375;28;45412;-66
2022/09/04 08:07:33;;;;;;;;;10.00;8.50;;;;;21.29;46.25;101237.25;4957434;28;45417;-66
2022/09/04 08:10:19;;;;;;;;;11.50;8.25;;;;;21.34;46.56;101238.72;4951400;28;45523;-65
2022/09/04 08:13:03;;;;;;;;;7.50;6.25;;;;;21.37;46.46;101241.25;4938245;28;45738;-65
2022/09/04 08:15:28;;;;;;;;;6.00;6.00;;;;;21.46;46.01;101239.91;4950770;28;45320;-65
2022/09/04 08:18:12;;;;;;;;;7.25;7.25;;;;;21.51;45.96;101245.88;4960239;28;45312;-66
2022/09/04 08:20:43;;;;;;;;;14.50;13.50;;;;;21.55;45.96;101246.56;4955482;28;45269;-64
2022/09/04 08:23:11;;;;;;;;;7.00;7.00;;;;;21.59;45.60;101248.16;4960316;28;45201;-65
2022/09/04 08:26:01;;;;;;;;;24.00;22.75;;;;;21.64;45.59;101243.44;4959872;28;46259;-65
2022/09/04 08:28:47;;;;;;;;;10.75;10.75;;;;;21.71;45.55;101244.84;4957020;28;45417;-65
2022/09/04 08:31:36;;;;;;;;;8.50;7.75;;;;;21.78;45.86;101253.41;4960100;28;45398;-65
2022/09/04 08:34:32;;;;;;;;;6.00;6.00;;;;;21.83;45.66;101250.50;4960281;28;45352;-64
2022/09/04 08:37:06;;;;;;;;;10.50;9.00;;;;;21.89;45.40;101247.50;4957777;28;45351;-65
2022/09/04 08:40:10;;;;;;;;;9.25;7.75;;;;;21.97;45.52;101250.59;4959758;28;45291;-65
2022/09/04 08:43:04;;;;;;;;;5.75;5.75;;;;;22.04;45.33;101243.13;4960129;28;45359;-65
2022/09/04 08:45:42;;;;;;;;;9.00;7.25;;;;;22.13;45.59;101249.78;4959665;28;45195;-65
2022/09/04 08:48:54;;;;;;;;;10.50;10.00;;;;;22.15;45.53;101238.03;4956089;28;45674;-65
2022/09/04 08:51:47;;;;;;;;;7.25;6.00;;;;;22.32;45.51;101254.97;4960185;28;45248;-65
2022/09/04 08:54:30;;;;;;;;;7.75;6.00;;;;;22.39;45.54;101257.25;4963233;28;45312;-65
2022/09/04 08:57:02;;;;;;;;;5.75;5.75;;;;;22.47;45.18;101258.66;4935059;28;45526;-65
2022/09/04 08:59:49;;;;;;;;;9.25;7.25;;;;;22.55;45.55;101259.06;4961913;28;46370;-65
2022/09/04 09:02:51;;;;;;;;;6.50;5.00;;;;;22.65;45.24;101262.94;4958837;28;45411;-64
2022/09/04 09:05:38;;;;;;;;;7.50;6.25;;;;;22.76;45.23;101267.69;4953921;28;45325;-64
2022/09/04 09:08:10;;;;;;;;;5.50;5.50;;;;;22.83;45.11;101265.50;4928915;28;45564;-65
2022/09/04 09:11:09;;;;;;;;;7.25;7.25;;;;;22.95;45.29;101274.69;4957202;28;46273;-64
2022/09/04 09:14:05;;;;;;;;;7.50;6.00;;;;;23.08;44.77;101274.81;4955545;28;45272;-65
2022/09/04 09:16:42;;;;;;;;;6.75;5.50;;;;;23.18;44.62;101282.28;4954917;28;45260;-64
2022/09/04 09:19:12;;;;;;;;;4.50;4.00;;;;;23.27;44.72;101271.94;4943726;28;45173;-64
2022/09/04 09:21:52;;;;;;;;;6.50;5.00;;;;;23.37;44.76;101278.50;4943887;28;46134;-64
2022/09/04 09:24:51;;;;;;;;;6.00;6.00;;;;;23.48;44.49;101268.00;4943593;28;45292;-64
2022/09/04 09:27:49;;;;;;;;;7.50;7.50;;;;;23.59;44.17;101266.47;4953258;28;45391;-65
2022/09/04 09:30:19;;;;;;;;;7.00;6.25;;;;;23.66;44.35;101263.31;4962116;28;45824;-64
2022/09/04 09:33:36;;;;;;;;;6.25;6.00;;;;;23.80;44.02;101272.34;4961132;28;48432;-65
2022/09/04 09:36:14;;;;;;;;;5.50;5.25;;;;;23.92;43.88;101266.22;4919980;28;45550;-65
2022/09/04 09:39:32;;;;;;;;;7.00;7.00;;;;;24.05;43.40;101260.97;4962185;28;45466;-65
2022/09/04 09:42:22;;;;;;;;;5.50;3.00;;;;;24.15;43.45;101261.22;4912771;28;45502;-65
2022/09/04 09:45:09;;;;;;;;;5.00;5.00;;;;;24.23;43.14;101264.31;4957345;28;45652;-65
2022/09/04 09:47:54;;;;;;;;;4.50;4.00;;;;;24.36;42.96;101261.69;4952331;28;45355;-65
2022/09/04 09:51:05;;;;;;;;;4.00;3.00;;;;;24.50;43.19;101258.13;4953880;28;45242;-65
2022/09/04 09:53:55;;;;;;;;;7.25;5.00;;;;;24.63;43.24;101264.41;4911386;28;45478;-66
2022/09/04 09:56:29;;;;;;;;;6.00;6.00;;;;;24.76;42.90;101266.34;4955774;28;46301;-66
2022/09/04 09:59:09;;;;;;;;;5.50;5.25;;;;;24.88;42.65;101261.97;4933568;28;45395;-66
2022/09/04 10:01:57;;;;;;;;;6.50;6.00;;;;;25.01;42.54;101252.13;4962406;28;45225;-66
2022/09/04 10:04:51;;;;;;;;;4.00;4.00;;;;;25.15;42.70;101257.41;4957385;28;45328;-67
2022/09/04 10:07:20;;;;;;;;;5.00;3.50;;;;;25.29;42.27;101252.94;4962367;28;45496;-66
2022/09/04 10:09:51;;;;;;;;;4.00;4.00;;;;;25.42;42.45;101252.97;4955391;28;45283;-66
2022/09/04 10:12:35;;;;;;;;;3.25;3.25;;;;;25.55;42.00;101253.00;4961705;28;45270;-67
2022/09/04 10:15:39;;;;;;;;;7.00;5.50;;;;;25.71;41.67;101252.78;4958234;28;45367;-66
2022/09/04 10:18:50;;;;;;;;;7.00;6.00;;;;;25.88;42.19;101249.75;4955469;28;46290;-66
2022/09/04 10:21:24;;;;;;;;;6.50;4.00;;;;;26.05;42.11;101242.28;4956448;28;45274;-65
2022/09/04 10:24:17;;;;;;;;;6.00;5.25;;;;;26.20;41.70;101243.06;4944803;28;45324;-64
2022/09/04 10:27:10;;;;;;;;;4.00;3.25;;;;;26.38;41.22;101246.25;4960341;28;45585;-65
2022/09/04 10:29:41;;;;;;;;;4.75;4.00;;;;;26.50;41.49;101244.47;4947310;28;45475;-68
2022/09/04 10:32:36;;;;;;;;;7.00;7.00;;;;;26.64;41.42;101243.47;4948415;28;45933;-67
2022/09/04 10:35:14;;;;;;;;;5.25;5.00;;;;;26.76;41.14;101238.03;4953290;28;45354;-67
2022/09/04 10:37:55;;;;;;;;;12.75;9.75;;;;;26.90;40.85;101237.00;4953441;28;45423;-68
2022/09/04 10:40:37;;;;;;;;;27.50;25.00;;;;;27.07;40.90;101245.66;4931466;28;46289;-68
2022/09/04 10:43:24;;;;;;;;;35.25;28.75;;;;;27.21;40.89;101231.97;4930653;28;45292;-67
2022/09/04 10:46:09;;;;;;;;;6.00;6.00;;;;;27.43;40.95;101229.47;4956474;28;45275;-68
2022/09/04 10:49:16;;;;;;;;;11.50;9.75;;;;;27.65;40.57;101234.91;4955649;28;45343;-67
2022/09/04 10:52:07;;;;;;;;;5.25;5.25;;;;;27.87;41.01;101231.34;4937474;28;46239;-67
2022/09/04 10:55:03;;;;;;;;;6.00;5.75;;;;;28.17;40.87;101237.13;4957609;28;45481;-67
2022/09/04 10:57:44;;;;;;;;;5.75;5.75;;;;;28.47;40.85;101227.50;4961479;28;45409;-66
2022/09/04 11:00:12;;;;;;;;;6.00;4.75;;;;;28.78;40.72;101235.75;4961548;28;45272;-66
2022/09/04 11:03:03;;;;;;;;;4.50;4.00;;;;;29.14;40.57;101226.38;4961917;28;45343;-67
2022/09/04 11:06:22;;;;;;;;;4.25;4.25;;;;;29.54;40.92;101221.25;4951849;28;45523;-67
2022/09/04 11:09:08;;;;;;;;;3.25;3.25;;;;;29.99;40.85;101219.06;4912350;28;45294;-67
2022/09/04 11:12:23;;;;;;;;;4.50;4.00;;;;;30.45;40.41;101208.63;4948698;28;45371;-67
2022/09/04 11:15:06;;;;;;;;;5.75;3.75;;;;;30.94;40.04;101213.22;4901363;29;46053;-67
2022/09/04 11:17:41;;;;;;;;;3.25;3.25;;;;;31.35;39.97;101221.19;4952950;28;45580;-67
2022/09/04 11:20:33;;;;;;;;;4.00;4.00;;;;;31.75;39.64;101212.78;4959054;28;45395;-67
2022/09/04 11:23:27;;;;;;;;;6.00;4.00;;;;;32.18;39.39;101209.59;4947781;28;45269;-67
2022/09/04 11:26:26;;;;;;;;;4.00;4.00;;;;;32.50;38.65;101208.25;4949589;28;46272;-66
2022/09/04 11:29:11;;;;;;;;;3.25;3.25;;;;;32.84;38.58;101208.44;4946306;28;45502;-68
2022/09/04 11:31:54;;;;;;;;;3.25;3.25;;;;;33.16;37.96;101209.69;4958403;28;45398;-67
2022/09/04 11:34:38;;;;;;;;;7.00;4.00;;;;;33.40;37.43;101202.75;4954563;28;45274;-67
2022/09/04 11:37:07;;;;;;;;;4.50;4.50;;;;;33.62;37.03;101206.75;4939342;28;46487;-67
2022/09/04 11:40:02;;;;;;;;;2.50;2.50;;;;;33.79;36.67;101207.69;4930116;28;45563;-66
2022/09/04 11:43:22;;;;;;;;;4.00;3.00;;;;;33.96;35.97;101203.22;4953034;28;45466;-67
2022/09/04 11:46:02;;;;;;;;;2.75;2.75;;;;;34.14;35.31;101203.09;4918967;28;45529;-61
2022/09/04 11:48:52;;;;;;;;;4.00;4.00;;;;;34.29;35.20;101205.16;4947286;28;45355;-60
2022/09/04 11:51:44;;;;;;;;;4.00;3.00;;;;;34.51;35.12;101211.91;4963329;28;45410;-60
2022/09/04 11:54:27;;;;;;;;;3.00;3.00;;;;;34.71;34.79;101208.84;4938224;28;45354;-60
2022/09/04 11:57:12;;;;;;;;;3.00;3.00;;;;;34.92;34.67;101205.63;4954103;28;45811;-60
2022/09/04 12:00:00;;;;;;;;;1.50;1.50;;;;;35.12;34.44;101198.81;4949119;28;45368;-60
2022/09/04 12:02:38;;;;;;;;;4.25;4.25;;;;;35.40;34.35;101200.31;4950441;28;45201;-60
2022/09/04 12:05:09;;;;;;;;;4.00;3.00;;;;;35.70;34.57;101195.06;4960566;28;45177;-60
2022/09/04 12:07:56;;;;;;;;;2.75;2.75;;;;;36.10;34.45;101201.41;4960555;28;45536;-60
2022/09/04 12:10:52;;;;;;;;;3.25;2.00;;;;;36.49;34.61;101205.13;4954323;28;46240;-60
2022/09/04 12:13:29;;;;;;;;;2.50;2.50;;;;;36.84;34.42;101187.22;4954751;28;45219;-60
2022/09/04 12:16:26;;;;;;;;;3.00;3.00;;;;;37.23;33.98;101208.13;4950797;28;45380;-60
2022/09/04 12:19:09;;;;;;;;;1.50;1.50;;;;;37.55;33.30;101197.88;4947162;28;45611;-60
2022/09/04 12:21:50;;;;;;;;;3.75;3.75;;;;;37.87;33.37;101197.69;4957448;28;46351;-60
2022/09/04 12:24:34;;;;;;;;;3.25;2.50;;;;;38.21;32.83;101191.56;4952293;28;45400;-60
2022/09/04 12:27:00;;;;;;;;;2.50;2.50;;;;;38.52;32.90;101195.88;4951108;28;45458;-60
2022/09/04 12:29:49;;;;;;;;;4.00;4.00;;;;;38.88;32.81;101182.28;4948533;28;45341;-60
2022/09/04 12:32:29;;;;;;;;;3.00;3.00;;;;;39.26;32.79;101184.69;4961142;28;46131;-60
2022/09/04 12:35:15;;;;;;;;;2.00;2.00;;;;;39.64;32.71;101182.38;4963733;28;45467;-60
2022/09/04 12:37:47;;;;;;;;;4.25;4.00;;;;;40.06;32.29;101176.00;4958559;28;45319;-61
2022/09/04 12:40:35;;;;;;;;;4.25;4.00;;;;;40.48;31.89;101179.50;4963692;28;45348;-61
2022/09/04 12:43:08;;;;;;;;;2.50;2.50;;;;;40.81;31.36;101175.06;4963247;28;45288;-60
2022/09/04 12:45:42;;;;;;;;;2.50;2.50;;;;;41.13;31.49;101178.06;4963227;28;45490;-61
2022/09/04 12:49:04;;;;;;;;;1.75;1.75;;;;;41.46;30.68;101183.53;4963629;28;45576;-62